sensor_id;sensor_type;location;lat;lon;timestamp;pressure;altitude;pressure_sealevel;temperature;humidity
37170;BME280;23062;13.952;100.608;2023-06-22T00:02:41;1010.26;;;31.34;65.16
37170;BME280;23062;13.952;100.608;2023-06-22T00:07:07;1010.24;;;31.35;65.25
37170;BME280;23062;13.952;100.608;2023-06-22T00:11:39;1010.21;;;31.39;65.14
37170;BME280;23062;13.952;100.608;2023-06-22T00:16:06;1010.22;;;31.41;65.18
37170;BME280;23062;13.952;100.608;2023-06-22T00:20:32;1010.27;;;31.42;65.27
37170;BME280;23062;13.952;100.608;2023-06-22T00:25:00;1010.25;;;31.42;65.21
37170;BME280;23062;13.952;100.608;2023-06-22T00:29:26;1010.25;;;31.47;65.09
37170;BME280;23062;13.952;100.608;2023-06-22T00:34:01;1010.26;;;31.47;65.06
37170;BME280;23062;13.952;100.608;2023-06-22T00:38:27;1010.26;;;31.50;65.06
37170;BME280;23062;13.952;100.608;2023-06-22T00:42:52;1010.28;;;31.53;64.90
37170;BME280;23062;13.952;100.608;2023-06-22T00:47:19;1010.28;;;31.54;64.85
37170;BME280;23062;13.952;100.608;2023-06-22T00:51:53;1010.35;;;31.55;65.06
37170;BME280;23062;13.952;100.608;2023-06-22T00:56:20;1010.47;;;31.46;64.99
37170;BME280;23062;13.952;100.608;2023-06-22T01:00:47;1010.46;;;31.46;64.74
37170;BME280;23062;13.952;100.608;2023-06-22T01:05:17;1010.41;;;31.49;64.80
37170;BME280;23062;13.952;100.608;2023-06-22T01:09:59;1010.39;;;31.50;64.79
37170;BME280;23062;13.952;100.608;2023-06-22T01:15:15;1010.48;;;31.42;64.91
37170;BME280;23062;13.952;100.608;2023-06-22T01:24:15;1010.45;;;31.55;64.41
37170;BME280;23062;13.952;100.608;2023-06-22T01:28:50;1010.43;;;31.63;63.98
37170;BME280;23062;13.952;100.608;2023-06-22T01:33:17;1010.49;;;31.69;63.73
37170;BME280;23062;13.952;100.608;2023-06-22T01:37:51;1010.55;;;31.74;63.56
37170;BME280;23062;13.952;100.608;2023-06-22T01:42:18;1010.52;;;31.78;63.39
37170;BME280;23062;13.952;100.608;2023-06-22T01:46:49;1010.59;;;31.83;63.33
37170;BME280;23062;13.952;100.608;2023-06-22T01:51:19;1010.61;;;31.88;62.97
37170;BME280;23062;13.952;100.608;2023-06-22T01:55:45;1010.63;;;31.91;62.78
37170;BME280;23062;13.952;100.608;2023-06-22T02:00:17;1010.65;;;31.95;62.50
37170;BME280;23062;13.952;100.608;2023-06-22T02:04:52;1010.66;;;32.00;62.26
37170;BME280;23062;13.952;100.608;2023-06-22T02:09:20;1010.71;;;32.02;61.67
37170;BME280;23062;13.952;100.608;2023-06-22T02:13:55;1010.73;;;32.05;60.96
37170;BME280;23062;13.952;100.608;2023-06-22T02:18:22;1010.71;;;32.11;60.70
37170;BME280;23062;13.952;100.608;2023-06-22T02:22:48;1010.77;;;32.12;60.55
37170;BME280;23062;13.952;100.608;2023-06-22T02:27:14;1010.73;;;32.18;60.47
37170;BME280;23062;13.952;100.608;2023-06-22T02:31:41;1010.77;;;32.23;60.34
37170;BME280;23062;13.952;100.608;2023-06-22T02:36:15;1010.75;;;32.24;60.25
37170;BME280;23062;13.952;100.608;2023-06-22T02:40:50;1010.66;;;32.27;60.20
37170;BME280;23062;13.952;100.608;2023-06-22T02:45:16;1010.67;;;32.32;60.00
37170;BME280;23062;13.952;100.608;2023-06-22T02:49:44;1010.63;;;32.37;59.47
37170;BME280;23062;13.952;100.608;2023-06-22T02:54:12;1010.62;;;32.38;59.28
37170;BME280;23062;13.952;100.608;2023-06-22T02:58:41;1010.57;;;32.40;59.09
37170;BME280;23062;13.952;100.608;2023-06-22T03:03:10;1010.56;;;32.43;58.34
37170;BME280;23062;13.952;100.608;2023-06-22T03:07:44;1010.57;;;32.46;57.64
37170;BME280;23062;13.952;100.608;2023-06-22T03:12:12;1010.54;;;32.48;56.70
37170;BME280;23062;13.952;100.608;2023-06-22T03:16:38;1010.51;;;32.50;56.50
37170;BME280;23062;13.952;100.608;2023-06-22T03:21:05;1010.47;;;32.53;56.23
37170;BME280;23062;13.952;100.608;2023-06-22T03:25:36;1010.51;;;32.54;56.41
37170;BME280;23062;13.952;100.608;2023-06-22T03:30:05;1010.45;;;32.50;56.38
37170;BME280;23062;13.952;100.608;2023-06-22T03:34:34;1010.39;;;32.54;56.49
37170;BME280;23062;13.952;100.608;2023-06-22T03:39:10;1010.40;;;32.57;56.49
37170;BME280;23062;13.952;100.608;2023-06-22T03:43:37;1010.28;;;32.58;56.54
37170;BME280;23062;13.952;100.608;2023-06-22T03:48:04;1010.27;;;32.61;56.72
37170;BME280;23062;13.952;100.608;2023-06-22T03:52:31;1010.21;;;32.61;56.65
37170;BME280;23062;13.952;100.608;2023-06-22T03:56:58;1010.20;;;32.62;56.52
37170;BME280;23062;13.952;100.608;2023-06-22T04:01:26;1010.21;;;32.65;56.30
37170;BME280;23062;13.952;100.608;2023-06-22T04:05:55;1010.14;;;32.67;55.61
37170;BME280;23062;13.952;100.608;2023-06-22T04:10:22;1010.05;;;32.68;55.43
37170;BME280;23062;13.952;100.608;2023-06-22T04:14:48;1010.05;;;32.73;55.89
37170;BME280;23062;13.952;100.608;2023-06-22T04:19:15;1009.93;;;32.74;55.98
37170;BME280;23062;13.952;100.608;2023-06-22T04:23:42;1009.86;;;32.76;55.61
37170;BME280;23062;13.952;100.608;2023-06-22T04:28:14;1009.77;;;32.77;55.42
37170;BME280;23062;13.952;100.608;2023-06-22T04:32:40;1009.71;;;32.80;55.18
37170;BME280;23062;13.952;100.608;2023-06-22T04:37:07;1009.69;;;32.80;55.18
37170;BME280;23062;13.952;100.608;2023-06-22T04:41:33;1009.67;;;32.81;55.16
37170;BME280;23062;13.952;100.608;2023-06-22T04:46:02;1009.68;;;32.83;54.59
37170;BME280;23062;13.952;100.608;2023-06-22T04:50:36;1009.65;;;32.84;53.84
37170;BME280;23062;13.952;100.608;2023-06-22T04:55:03;1009.60;;;32.85;54.28
37170;BME280;23062;13.952;100.608;2023-06-22T04:59:31;1009.52;;;32.87;54.22
37170;BME280;23062;13.952;100.608;2023-06-22T05:03:59;1009.49;;;32.90;54.30
37170;BME280;23062;13.952;100.608;2023-06-22T05:08:33;1009.45;;;32.92;54.12
37170;BME280;23062;13.952;100.608;2023-06-22T05:13:00;1009.37;;;32.96;53.54
37170;BME280;23062;13.952;100.608;2023-06-22T05:17:35;1009.34;;;32.95;52.85
37170;BME280;23062;13.952;100.608;2023-06-22T05:22:03;1009.32;;;32.96;52.62
37170;BME280;23062;13.952;100.608;2023-06-22T05:26:34;1009.24;;;33.00;52.21
37170;BME280;23062;13.952;100.608;2023-06-22T05:31:03;1009.11;;;33.03;51.29
37170;BME280;23062;13.952;100.608;2023-06-22T05:35:29;1009.03;;;33.02;51.69
37170;BME280;23062;13.952;100.608;2023-06-22T05:39:56;1008.94;;;33.05;51.70
37170;BME280;23062;13.952;100.608;2023-06-22T05:44:22;1008.93;;;33.09;51.76
37170;BME280;23062;13.952;100.608;2023-06-22T05:48:57;1008.80;;;33.08;51.64
37170;BME280;23062;13.952;100.608;2023-06-22T05:53:26;1008.73;;;33.12;51.42
37170;BME280;23062;13.952;100.608;2023-06-22T05:57:53;1008.65;;;33.12;51.89
37170;BME280;23062;13.952;100.608;2023-06-22T06:02:28;1008.55;;;33.14;51.29
37170;BME280;23062;13.952;100.608;2023-06-22T06:06:54;1008.47;;;33.17;50.95
37170;BME280;23062;13.952;100.608;2023-06-22T06:11:27;1008.39;;;33.16;50.70
37170;BME280;23062;13.952;100.608;2023-06-22T06:15:53;1008.31;;;33.19;51.07
37170;BME280;23062;13.952;100.608;2023-06-22T06:20:33;1008.21;;;33.18;51.10
37170;BME280;23062;13.952;100.608;2023-06-22T06:25:00;1008.13;;;33.22;51.31
37170;BME280;23062;13.952;100.608;2023-06-22T06:29:27;1008.15;;;33.24;51.90
37170;BME280;23062;13.952;100.608;2023-06-22T06:33:54;1008.07;;;33.24;51.89
37170;BME280;23062;13.952;100.608;2023-06-22T06:38:21;1008.04;;;33.27;52.00
37170;BME280;23062;13.952;100.608;2023-06-22T06:42:55;1007.89;;;33.28;52.03
37170;BME280;23062;13.952;100.608;2023-06-22T06:47:22;1007.89;;;33.29;51.49
37170;BME280;23062;13.952;100.608;2023-06-22T06:51:56;1007.88;;;33.30;51.59
37170;BME280;23062;13.952;100.608;2023-06-22T06:56:23;1007.82;;;33.33;51.22
37170;BME280;23062;13.952;100.608;2023-06-22T07:00:57;1007.75;;;33.34;51.64
37170;BME280;23062;13.952;100.608;2023-06-22T07:05:25;1007.71;;;33.38;51.50
37170;BME280;23062;13.952;100.608;2023-06-22T07:09:58;1007.64;;;33.40;51.00
37170;BME280;23062;13.952;100.608;2023-06-22T07:14:27;1007.54;;;33.41;51.05
37170;BME280;23062;13.952;100.608;2023-06-22T07:18:56;1007.41;;;33.39;50.75
37170;BME280;23062;13.952;100.608;2023-06-22T07:23:23;1007.36;;;33.43;50.14
37170;BME280;23062;13.952;100.608;2023-06-22T07:28:03;1007.23;;;33.46;49.86
37170;BME280;23062;13.952;100.608;2023-06-22T07:32:29;1007.15;;;33.45;50.11
37170;BME280;23062;13.952;100.608;2023-06-22T07:36:56;1007.07;;;33.45;50.17
37170;BME280;23062;13.952;100.608;2023-06-22T07:41:30;1006.99;;;33.48;50.01
37170;BME280;23062;13.952;100.608;2023-06-22T07:46:08;1006.93;;;33.48;49.92
37170;BME280;23062;13.952;100.608;2023-06-22T07:50:35;1006.91;;;33.50;49.17
37170;BME280;23062;13.952;100.608;2023-06-22T07:55:06;1006.85;;;33.50;48.33
37170;BME280;23062;13.952;100.608;2023-06-22T07:59:41;1006.78;;;33.53;47.83
37170;BME280;23062;13.952;100.608;2023-06-22T08:04:15;1006.61;;;33.49;48.12
37170;BME280;23062;13.952;100.608;2023-06-22T08:08:41;1006.57;;;33.52;48.19
37170;BME280;23062;13.952;100.608;2023-06-22T08:13:08;1006.52;;;33.53;47.93
37170;BME280;23062;13.952;100.608;2023-06-22T08:17:36;1006.48;;;33.57;47.80
37170;BME280;23062;13.952;100.608;2023-06-22T08:22:03;1006.43;;;33.59;47.67
37170;BME280;23062;13.952;100.608;2023-06-22T08:26:29;1006.39;;;33.60;46.92
37170;BME280;23062;13.952;100.608;2023-06-22T08:31:04;1006.29;;;33.62;46.53
37170;BME280;23062;13.952;100.608;2023-06-22T08:35:37;1006.24;;;33.60;46.53
37170;BME280;23062;13.952;100.608;2023-06-22T08:40:04;1006.20;;;33.66;46.20
37170;BME280;23062;13.952;100.608;2023-06-22T08:44:32;1006.13;;;33.64;46.71
37170;BME280;23062;13.952;100.608;2023-06-22T08:49:06;1006.13;;;33.68;46.77
37170;BME280;23062;13.952;100.608;2023-06-22T08:53:40;1006.14;;;33.70;46.73
37170;BME280;23062;13.952;100.608;2023-06-22T08:58:13;1006.08;;;33.69;46.90
37170;BME280;23062;13.952;100.608;2023-06-22T09:02:41;1006.04;;;33.72;46.93
37170;BME280;23062;13.952;100.608;2023-06-22T09:07:09;1005.96;;;33.69;47.19
37170;BME280;23062;13.952;100.608;2023-06-22T09:11:35;1005.87;;;33.74;46.97
37170;BME280;23062;13.952;100.608;2023-06-22T09:16:02;1005.85;;;33.79;47.04
37170;BME280;23062;13.952;100.608;2023-06-22T09:20:27;1005.69;;;33.78;47.44
37170;BME280;23062;13.952;100.608;2023-06-22T09:24:54;1005.60;;;33.74;47.46
37170;BME280;23062;13.952;100.608;2023-06-22T09:29:22;1005.54;;;33.75;47.44
37170;BME280;23062;13.952;100.608;2023-06-22T09:33:56;1005.51;;;33.75;47.55
37170;BME280;23062;13.952;100.608;2023-06-22T09:38:27;1005.53;;;33.76;47.61
37170;BME280;23062;13.952;100.608;2023-06-22T09:42:53;1005.54;;;33.78;47.38
37170;BME280;23062;13.952;100.608;2023-06-22T09:47:20;1005.58;;;33.77;47.44
37170;BME280;23062;13.952;100.608;2023-06-22T09:51:49;1005.53;;;33.79;47.20
37170;BME280;23062;13.952;100.608;2023-06-22T09:56:23;1005.51;;;33.80;47.60
37170;BME280;23062;13.952;100.608;2023-06-22T10:00:50;1005.45;;;33.78;47.93
37170;BME280;23062;13.952;100.608;2023-06-22T10:05:23;1005.41;;;33.75;47.88
37170;BME280;23062;13.952;100.608;2023-06-22T10:09:51;1005.34;;;33.75;47.71
37170;BME280;23062;13.952;100.608;2023-06-22T10:14:18;1005.31;;;33.76;49.30
37170;BME280;23062;13.952;100.608;2023-06-22T10:18:46;1005.28;;;33.77;51.38
37170;BME280;23062;13.952;100.608;2023-06-22T10:23:21;1005.24;;;33.78;52.70
37170;BME280;23062;13.952;100.608;2023-06-22T10:27:55;1005.28;;;33.81;54.78
37170;BME280;23062;13.952;100.608;2023-06-22T10:32:21;1005.30;;;33.84;54.70
37170;BME280;23062;13.952;100.608;2023-06-22T10:36:51;1005.29;;;33.87;56.13
37170;BME280;23062;13.952;100.608;2023-06-22T10:41:20;1005.35;;;33.88;57.15
37170;BME280;23062;13.952;100.608;2023-06-22T10:45:48;1005.31;;;33.87;57.61
37170;BME280;23062;13.952;100.608;2023-06-22T10:50:15;1005.38;;;33.88;58.07
37170;BME280;23062;13.952;100.608;2023-06-22T10:54:50;1005.45;;;33.86;58.31
37170;BME280;23062;13.952;100.608;2023-06-22T10:59:18;1005.48;;;33.84;58.84
37170;BME280;23062;13.952;100.608;2023-06-22T11:03:50;1005.51;;;33.84;58.90
37170;BME280;23062;13.952;100.608;2023-06-22T11:08:19;1005.56;;;33.85;58.72
37170;BME280;23062;13.952;100.608;2023-06-22T11:12:47;1005.47;;;33.88;58.70
37170;BME280;23062;13.952;100.608;2023-06-22T11:17:19;1005.44;;;33.88;58.54
37170;BME280;23062;13.952;100.608;2023-06-22T11:21:47;1005.46;;;33.88;58.38
37170;BME280;23062;13.952;100.608;2023-06-22T11:26:20;1005.46;;;33.84;58.84
37170;BME280;23062;13.952;100.608;2023-06-22T11:30:46;1005.53;;;33.85;58.75
37170;BME280;23062;13.952;100.608;2023-06-22T11:35:14;1005.56;;;33.89;58.61
37170;BME280;23062;13.952;100.608;2023-06-22T11:39:45;1005.50;;;33.84;59.00
37170;BME280;23062;13.952;100.608;2023-06-22T11:44:17;1005.46;;;33.81;58.96
37170;BME280;23062;13.952;100.608;2023-06-22T11:48:45;1005.51;;;33.77;59.47
37170;BME280;23062;13.952;100.608;2023-06-22T11:53:13;1005.58;;;33.76;59.65
37170;BME280;23062;13.952;100.608;2023-06-22T11:57:55;1005.66;;;33.77;59.20
37170;BME280;23062;13.952;100.608;2023-06-22T12:02:24;1005.68;;;33.77;59.29
37170;BME280;23062;13.952;100.608;2023-06-22T12:06:51;1005.57;;;33.73;59.54
37170;BME280;23062;13.952;100.608;2023-06-22T12:11:19;1005.58;;;33.74;59.45
37170;BME280;23062;13.952;100.608;2023-06-22T12:15:54;1005.62;;;33.72;59.66
37170;BME280;23062;13.952;100.608;2023-06-22T12:20:21;1005.64;;;33.69;59.62
37170;BME280;23062;13.952;100.608;2023-06-22T12:24:49;1005.69;;;33.71;59.39
37170;BME280;23062;13.952;100.608;2023-06-22T12:29:21;1005.86;;;33.68;59.58
37170;BME280;23062;13.952;100.608;2023-06-22T12:33:49;1005.95;;;33.67;59.36
37170;BME280;23062;13.952;100.608;2023-06-22T12:38:16;1005.98;;;33.65;59.39
37170;BME280;23062;13.952;100.608;2023-06-22T12:42:44;1006.07;;;33.64;59.25
37170;BME280;23062;13.952;100.608;2023-06-22T12:47:13;1006.23;;;33.61;59.32
37170;BME280;23062;13.952;100.608;2023-06-22T12:51:44;1006.19;;;33.62;59.51
37170;BME280;23062;13.952;100.608;2023-06-22T12:56:11;1006.33;;;33.61;59.63
37170;BME280;23062;13.952;100.608;2023-06-22T13:00:40;1006.44;;;33.64;59.62
37170;BME280;23062;13.952;100.608;2023-06-22T13:05:08;1006.53;;;33.62;59.77
37170;BME280;23062;13.952;100.608;2023-06-22T13:09:35;1006.58;;;33.63;59.63
37170;BME280;23062;13.952;100.608;2023-06-22T13:14:08;1006.60;;;33.66;59.49
37170;BME280;23062;13.952;100.608;2023-06-22T13:18:35;1006.64;;;33.65;59.27
37170;BME280;23062;13.952;100.608;2023-06-22T13:23:09;1006.79;;;33.62;59.41
37170;BME280;23062;13.952;100.608;2023-06-22T13:27:37;1006.87;;;33.62;59.40
37170;BME280;23062;13.952;100.608;2023-06-22T13:32:05;1006.84;;;33.63;59.22
37170;BME280;23062;13.952;100.608;2023-06-22T13:36:32;1006.87;;;33.60;59.17
37170;BME280;23062;13.952;100.608;2023-06-22T13:41:02;1006.89;;;33.60;58.93
37170;BME280;23062;13.952;100.608;2023-06-22T13:45:30;1006.95;;;33.57;58.67
37170;BME280;23062;13.952;100.608;2023-06-22T13:49:56;1007.06;;;33.56;58.24
37170;BME280;23062;13.952;100.608;2023-06-22T13:54:24;1007.13;;;33.56;58.18
37170;BME280;23062;13.952;100.608;2023-06-22T13:58:52;1007.15;;;33.55;58.07
37170;BME280;23062;13.952;100.608;2023-06-22T14:03:20;1007.19;;;33.56;57.55
37170;BME280;23062;13.952;100.608;2023-06-22T14:07:48;1007.27;;;33.52;57.23
37170;BME280;23062;13.952;100.608;2023-06-22T14:12:21;1007.43;;;33.51;57.32
37170;BME280;23062;13.952;100.608;2023-06-22T14:16:48;1007.52;;;33.49;57.00
37170;BME280;23062;13.952;100.608;2023-06-22T14:21:15;1007.60;;;33.49;57.01
37170;BME280;23062;13.952;100.608;2023-06-22T14:25:42;1007.66;;;33.48;56.80
37170;BME280;23062;13.952;100.608;2023-06-22T14:30:09;1007.80;;;33.49;56.64
37170;BME280;23062;13.952;100.608;2023-06-22T14:34:37;1007.86;;;33.45;56.57
37170;BME280;23062;13.952;100.608;2023-06-22T14:39:13;1007.94;;;33.44;56.50
37170;BME280;23062;13.952;100.608;2023-06-22T14:43:45;1007.94;;;33.45;56.42
37170;BME280;23062;13.952;100.608;2023-06-22T14:48:13;1007.94;;;33.46;56.36
37170;BME280;23062;13.952;100.608;2023-06-22T14:52:41;1008.00;;;33.42;56.18
37170;BME280;23062;13.952;100.608;2023-06-22T14:57:08;1008.05;;;33.41;56.01
37170;BME280;23062;13.952;100.608;2023-06-22T15:01:42;1008.08;;;33.42;56.04
37170;BME280;23062;13.952;100.608;2023-06-22T15:06:10;1008.07;;;33.39;55.97
37170;BME280;23062;13.952;100.608;2023-06-22T15:10:39;1008.12;;;33.40;55.91
37170;BME280;23062;13.952;100.608;2023-06-22T15:15:07;1008.23;;;33.40;55.95
37170;BME280;23062;13.952;100.608;2023-06-22T15:19:41;1008.42;;;33.38;55.71
37170;BME280;23062;13.952;100.608;2023-06-22T15:24:12;1008.48;;;33.39;55.62
37170;BME280;23062;13.952;100.608;2023-06-22T15:28:39;1008.50;;;33.38;55.42
37170;BME280;23062;13.952;100.608;2023-06-22T15:33:07;1008.56;;;33.33;55.31
37170;BME280;23062;13.952;100.608;2023-06-22T15:37:41;1008.62;;;33.32;55.45
37170;BME280;23062;13.952;100.608;2023-06-22T15:42:14;1008.62;;;33.33;55.40
37170;BME280;23062;13.952;100.608;2023-06-22T15:46:42;1008.58;;;33.31;55.33
37170;BME280;23062;13.952;100.608;2023-06-22T15:51:08;1008.59;;;33.32;55.12
37170;BME280;23062;13.952;100.608;2023-06-22T15:55:35;1008.68;;;33.34;54.93
37170;BME280;23062;13.952;100.608;2023-06-22T16:00:02;1008.73;;;33.33;55.05
37170;BME280;23062;13.952;100.608;2023-06-22T16:04:30;1008.77;;;33.33;54.95
37170;BME280;23062;13.952;100.608;2023-06-22T16:08:57;1008.70;;;33.31;55.06
37170;BME280;23062;13.952;100.608;2023-06-22T16:13:31;1008.71;;;33.30;55.08
37170;BME280;23062;13.952;100.608;2023-06-22T16:18:00;1008.75;;;33.29;55.10
37170;BME280;23062;13.952;100.608;2023-06-22T16:22:34;1008.78;;;33.28;55.26
37170;BME280;23062;13.952;100.608;2023-06-22T16:27:01;1008.84;;;33.26;55.32
37170;BME280;23062;13.952;100.608;2023-06-22T16:36:05;1008.70;;;33.25;55.56
37170;BME280;23062;13.952;100.608;2023-06-22T16:40:34;1008.73;;;33.28;55.51
37170;BME280;23062;13.952;100.608;2023-06-22T16:45:01;1008.71;;;33.28;55.67
37170;BME280;23062;13.952;100.608;2023-06-22T16:49:31;1008.70;;;33.27;55.79
37170;BME280;23062;13.952;100.608;2023-06-22T16:54:08;1008.71;;;33.26;55.91
37170;BME280;23062;13.952;100.608;2023-06-22T16:58:36;1008.68;;;33.27;56.04
37170;BME280;23062;13.952;100.608;2023-06-22T17:03:05;1008.67;;;33.26;56.13
37170;BME280;23062;13.952;100.608;2023-06-22T17:07:32;1008.67;;;33.26;56.33
37170;BME280;23062;13.952;100.608;2023-06-22T17:12:01;1008.62;;;33.26;56.58
37170;BME280;23062;13.952;100.608;2023-06-22T17:16:30;1008.52;;;33.23;56.79
37170;BME280;23062;13.952;100.608;2023-06-22T17:20:59;1008.52;;;33.23;56.95
37170;BME280;23062;13.952;100.608;2023-06-22T17:25:34;1008.49;;;33.24;57.14
37170;BME280;23062;13.952;100.608;2023-06-22T17:30:10;1008.47;;;33.23;57.21
37170;BME280;23062;13.952;100.608;2023-06-22T17:34:42;1008.50;;;33.25;57.25
37170;BME280;23062;13.952;100.608;2023-06-22T17:39:20;1008.53;;;33.20;57.59
37170;BME280;23062;13.952;100.608;2023-06-22T17:43:50;1008.52;;;33.18;57.61
37170;BME280;23062;13.952;100.608;2023-06-22T17:48:23;1008.40;;;33.20;57.55
37170;BME280;23062;13.952;100.608;2023-06-22T17:52:52;1008.37;;;33.20;57.17
37170;BME280;23062;13.952;100.608;2023-06-22T17:57:26;1008.27;;;33.22;57.26
37170;BME280;23062;13.952;100.608;2023-06-22T18:01:52;1008.31;;;33.21;57.30
37170;BME280;23062;13.952;100.608;2023-06-22T18:06:35;1008.32;;;33.21;57.38
37170;BME280;23062;13.952;100.608;2023-06-22T18:11:03;1008.33;;;33.18;57.52
37170;BME280;23062;13.952;100.608;2023-06-22T18:15:36;1008.43;;;33.16;57.63
37170;BME280;23062;13.952;100.608;2023-06-22T18:20:05;1008.40;;;33.17;57.74
37170;BME280;23062;13.952;100.608;2023-06-22T18:24:38;1008.34;;;33.18;57.63
37170;BME280;23062;13.952;100.608;2023-06-22T18:29:10;1008.38;;;33.17;57.68
37170;BME280;23062;13.952;100.608;2023-06-22T18:33:44;1008.36;;;33.15;57.72
37170;BME280;23062;13.952;100.608;2023-06-22T18:38:20;1008.32;;;33.18;57.68
37170;BME280;23062;13.952;100.608;2023-06-22T18:42:49;1008.27;;;33.12;57.81
37170;BME280;23062;13.952;100.608;2023-06-22T18:47:26;1008.19;;;33.16;57.72
37170;BME280;23062;13.952;100.608;2023-06-22T18:51:55;1008.20;;;33.13;57.81
37170;BME280;23062;13.952;100.608;2023-06-22T18:56:27;1008.11;;;33.11;57.93
37170;BME280;23062;13.952;100.608;2023-06-22T19:00:54;1008.15;;;33.12;57.82
37170;BME280;23062;13.952;100.608;2023-06-22T19:05:39;1008.08;;;33.11;57.83
37170;BME280;23062;13.952;100.608;2023-06-22T19:10:25;1008.04;;;33.10;57.82
37170;BME280;23062;13.952;100.608;2023-06-22T19:15:09;1008.01;;;33.12;57.70
37170;BME280;23062;13.952;100.608;2023-06-22T19:19:37;1007.95;;;33.10;57.73
37170;BME280;23062;13.952;100.608;2023-06-22T19:24:05;1007.97;;;33.08;57.70
37170;BME280;23062;13.952;100.608;2023-06-22T19:28:43;1008.01;;;33.07;57.66
37170;BME280;23062;13.952;100.608;2023-06-22T19:33:15;1007.96;;;33.06;57.62
37170;BME280;23062;13.952;100.608;2023-06-22T19:37:46;1007.98;;;33.06;57.60
37170;BME280;23062;13.952;100.608;2023-06-22T19:42:22;1008.00;;;33.08;57.55
37170;BME280;23062;13.952;100.608;2023-06-22T19:46:59;1008.02;;;33.08;57.52
37170;BME280;23062;13.952;100.608;2023-06-22T19:51:36;1008.01;;;33.04;57.64
37170;BME280;23062;13.952;100.608;2023-06-22T19:56:11;1007.93;;;33.06;57.52
37170;BME280;23062;13.952;100.608;2023-06-22T20:00:45;1007.93;;;33.01;57.73
37170;BME280;23062;13.952;100.608;2023-06-22T20:05:19;1008.03;;;33.02;57.66
37170;BME280;23062;13.952;100.608;2023-06-22T20:10:04;1008.03;;;33.04;57.64
37170;BME280;23062;13.952;100.608;2023-06-22T20:14:20;1008.02;;;33.01;57.72
37170;BME280;23062;13.952;100.608;2023-06-22T20:19:09;1008.05;;;33.00;57.67
37170;BME280;23062;13.952;100.608;2023-06-22T20:23:37;1008.06;;;33.02;57.70
37170;BME280;23062;13.952;100.608;2023-06-22T20:28:12;1008.03;;;33.03;57.67
37170;BME280;23062;13.952;100.608;2023-06-22T20:32:47;1008.07;;;33.00;57.73
37170;BME280;23062;13.952;100.608;2023-06-22T20:37:22;1008.03;;;32.97;57.85
37170;BME280;23062;13.952;100.608;2023-06-22T20:41:58;1007.99;;;32.99;57.90
37170;BME280;23062;13.952;100.608;2023-06-22T20:46:25;1007.99;;;32.97;58.11
37170;BME280;23062;13.952;100.608;2023-06-22T20:50:54;1008.03;;;32.97;58.19
37170;BME280;23062;13.952;100.608;2023-06-22T20:55:22;1008.01;;;32.98;58.33
37170;BME280;23062;13.952;100.608;2023-06-22T20:59:57;1008.06;;;32.98;58.47
37170;BME280;23062;13.952;100.608;2023-06-22T21:04:25;1008.02;;;32.92;59.70
37170;BME280;23062;13.952;100.608;2023-06-22T21:08:51;1008.06;;;32.85;60.42
37170;BME280;23062;13.952;100.608;2023-06-22T21:13:18;1008.06;;;32.79;60.84
37170;BME280;23062;13.952;100.608;2023-06-22T21:17:47;1008.13;;;32.71;61.49
37170;BME280;23062;13.952;100.608;2023-06-22T21:22:21;1008.16;;;32.71;61.75
37170;BME280;23062;13.952;100.608;2023-06-22T21:26:57;1008.16;;;32.64;62.11
37170;BME280;23062;13.952;100.608;2023-06-22T21:31:27;1008.20;;;32.63;62.38
37170;BME280;23062;13.952;100.608;2023-06-22T21:35:55;1008.13;;;32.58;62.78
37170;BME280;23062;13.952;100.608;2023-06-22T21:40:31;1008.10;;;32.54;62.65
37170;BME280;23062;13.952;100.608;2023-06-22T21:44:58;1008.05;;;32.51;62.30
37170;BME280;23062;13.952;100.608;2023-06-22T21:49:32;1008.06;;;32.47;62.11
37170;BME280;23062;13.952;100.608;2023-06-22T21:53:59;1008.04;;;32.49;61.85
37170;BME280;23062;13.952;100.608;2023-06-22T21:58:33;1008.12;;;32.46;61.72
37170;BME280;23062;13.952;100.608;2023-06-22T22:03:00;1008.14;;;32.49;61.67
37170;BME280;23062;13.952;100.608;2023-06-22T22:07:26;1008.11;;;32.43;61.64
37170;BME280;23062;13.952;100.608;2023-06-22T22:11:55;1008.12;;;32.03;62.33
37170;BME280;23062;13.952;100.608;2023-06-22T22:16:21;1008.15;;;31.94;62.76
37170;BME280;23062;13.952;100.608;2023-06-22T22:20:55;1008.19;;;31.98;62.61
37170;BME280;23062;13.952;100.608;2023-06-22T22:25:23;1008.25;;;31.84;62.42
37170;BME280;23062;13.952;100.608;2023-06-22T22:29:59;1008.26;;;31.76;62.35
37170;BME280;23062;13.952;100.608;2023-06-22T22:34:33;1008.20;;;31.78;61.84
37170;BME280;23062;13.952;100.608;2023-06-22T22:38:59;1008.19;;;31.79;61.38
37170;BME280;23062;13.952;100.608;2023-06-22T22:43:25;1008.30;;;31.73;61.01
37170;BME280;23062;13.952;100.608;2023-06-22T22:47:52;1008.33;;;31.61;61.16
37170;BME280;23062;13.952;100.608;2023-06-22T22:52:18;1008.44;;;31.63;61.25
37170;BME280;23062;13.952;100.608;2023-06-22T22:56:45;1008.48;;;31.59;61.41
37170;BME280;23062;13.952;100.608;2023-06-22T23:01:11;1008.54;;;31.78;61.00
37170;BME280;23062;13.952;100.608;2023-06-22T23:05:38;1008.53;;;31.93;59.61
37170;BME280;23062;13.952;100.608;2023-06-22T23:10:04;1008.52;;;32.00;59.48
37170;BME280;23062;13.952;100.608;2023-06-22T23:14:32;1008.60;;;32.05;59.63
37170;BME280;23062;13.952;100.608;2023-06-22T23:19:06;1008.61;;;32.07;59.17
37170;BME280;23062;13.952;100.608;2023-06-22T23:23:35;1008.71;;;32.11;58.82
37170;BME280;23062;13.952;100.608;2023-06-22T23:28:01;1008.75;;;32.10;58.77
37170;BME280;23062;13.952;100.608;2023-06-22T23:32:35;1008.76;;;32.09;58.64
37170;BME280;23062;13.952;100.608;2023-06-22T23:37:08;1008.78;;;32.13;58.42
37170;BME280;23062;13.952;100.608;2023-06-22T23:41:35;1008.79;;;32.16;58.54